KOAJ/OAJ METAR and TAF weather

Enter ICAO airport designator
Station Type Date Time Source
KOAJ METAR 2021/02/24 16:56 UTC NOAA

KOAJ 241656Z 18010G18KT 10SM CLR 20/04 A3014 RMK AO2 SLP211 T02000044


Station Type Date Time Source
KOAJ Decoded METAR 2021/02/24 16:56 UTC NOAA

Jacksonville, Albert J Ellis Airport, NC, United States (KOAJ) 34-50N 077-37W
Feb 24, 2021 - 11:56 AM EST / 2021.02.24 1656 UTC
Wind: from the S (180 degrees) at 12 MPH (10 KT) gusting to 21 MPH (18 KT):0
Visibility: 10 mile(s):0
Sky conditions: clear
Temperature: 68.0 F (20.0 C)
Dew Point: 39.9 F (4.4 C)
Relative Humidity: 35%
Pressure (altimeter): 30.14 in. Hg (1020 hPa)
ob: KOAJ 241656Z 18010G18KT 10SM CLR 20/04 A3014 RMK AO2 SLP211 T02000044
cycle: 17

Station Type Date Time Source
KOAJ TAF 2021/02/24 12:30 UTC NOAA

TAF KOAJ 241128Z 2412/2512 VRB03KT P6SM SKC
FM241500 18010KT P6SM SKC
FM241800 19010G15KT P6SM SKC
FM250400 22005KT P6SM SKC
AMD LTD TO CLD VIS AND WIND

Example: see airport list